Аэропорт: Орск. Орск

ICAO: UWOR

METAR:
2018/07/22 20:00
UWOR 222000Z 06005MPS CAVOK 12/05 Q1016 R07/CLRD65 NOSIG RMK QFE737/0983
METAR:
2015/12/20 18:00
TAF UWOR 201700Z 2018/2103 15010G15MPS 2000 SN BLSN OVC007 
      TEMPO 2018/2024 19015MPS 1200 SN BLSN OVC005